Terminal Aerodrome Forecast
Issued by NWS Northern Indiana

Home | Current Version | Previous Version | Graphics & Text | Print | Product List | Glossary On
Versions: 1 2 3 4 5 6 7 8 9 10 11 12 13 14 15 16 17 18 19
000
FTUS43 KIWX 091121 AAA
TAFFWA
TAF AMD
KFWA 091121Z 0911/1006 24010KT 2SM -SN OVC025
     FM092000 31012G20KT P6SM BKN015
     FM100300 31008KT P6SM BKN015=

USA.gov is the U.S. government's official web portal to all federal, state and local government web resources and services.